createdAt,value
2018-03-03T00:02:45.499Z,79.00
2018-03-03T00:05:15.858Z,62.37
2018-03-03T00:07:42.909Z,59.33
2018-03-03T00:10:13.565Z,59.70
2018-03-03T00:12:40.671Z,59.57
2018-03-03T00:15:07.721Z,59.27
2018-03-03T00:17:34.776Z,58.50
2018-03-03T00:20:01.888Z,57.30
2018-03-03T00:22:41.404Z,58.23
2018-03-03T00:25:08.581Z,54.37
2018-03-03T00:27:35.647Z,60.93
2018-03-03T00:30:02.713Z,62.27
2018-03-03T00:32:29.842Z,60.10
2018-03-03T00:34:56.933Z,61.33
2018-03-03T00:40:05.344Z,83.03
2018-03-03T00:42:33.029Z,65.27
2018-03-03T00:47:38.920Z,80.50
2018-03-03T00:50:06.000Z,63.37
2018-03-03T00:52:33.335Z,61.33
2018-03-03T00:55:00.650Z,63.63
2018-03-03T00:57:30.049Z,61.27
2018-03-03T00:59:57.077Z,60.93
2018-03-03T01:02:24.191Z,59.93
2018-03-03T01:04:51.306Z,59.47
2018-03-03T01:07:18.361Z,57.47
2018-03-03T01:09:46.932Z,56.83
2018-03-03T01:12:13.664Z,57.80
2018-03-03T01:14:40.733Z,60.70
2018-03-03T01:17:07.875Z,59.03
2018-03-03T01:19:34.934Z,57.53
2018-03-03T01:22:02.029Z,55.40
2018-03-03T01:24:29.159Z,59.07
2018-03-03T01:26:56.238Z,57.60
2018-03-03T01:29:23.330Z,59.27
2018-03-03T01:31:50.714Z,56.37
2018-03-03T01:34:17.789Z,59.40
2018-03-03T01:36:44.899Z,55.73
2018-03-03T01:39:12.935Z,57.43
2018-03-03T01:41:39.995Z,58.57
2018-03-03T01:44:07.080Z,58.50
2018-03-03T01:46:34.186Z,59.47
2018-03-03T01:49:01.262Z,61.53
2018-03-03T01:51:40.207Z,59.93
2018-03-03T01:54:07.268Z,60.47
2018-03-03T01:56:34.330Z,59.60
2018-03-03T01:59:01.477Z,62.37
2018-03-03T02:01:29.248Z,61.73
2018-03-03T02:03:56.324Z,60.40
2018-03-03T02:09:02.341Z,86.30
2018-03-03T02:11:29.495Z,66.87
2018-03-03T02:13:56.554Z,62.73
2018-03-03T02:16:23.616Z,65.63
2018-03-03T02:18:50.723Z,61.03
2018-03-03T02:21:17.804Z,62.33
2018-03-03T02:23:44.875Z,63.40
2018-03-03T02:26:12.017Z,62.70
2018-03-03T02:28:39.104Z,61.83
2018-03-03T02:31:06.180Z,59.47
2018-03-03T02:33:33.312Z,61.43
2018-03-03T02:36:00.371Z,61.67
2018-03-03T02:38:27.435Z,64.10
2018-03-03T02:40:54.564Z,62.00
2018-03-03T02:43:21.636Z,61.40
2018-03-03T02:45:48.786Z,60.67
2018-03-03T02:48:15.901Z,59.63
2018-03-03T02:50:42.965Z,60.43
2018-03-03T02:53:10.027Z,59.27
2018-03-03T02:55:37.148Z,60.43
2018-03-03T02:58:04.211Z,61.27
2018-03-03T03:00:31.265Z,61.27
2018-03-03T03:02:58.390Z,60.77
2018-03-03T03:05:25.451Z,60.50
2018-03-03T03:10:30.573Z,80.28
2018-03-03T03:12:57.635Z,63.57
2018-03-03T03:15:24.703Z,61.13
2018-03-03T03:17:51.820Z,61.93
2018-03-03T03:20:18.905Z,58.67
2018-03-03T03:22:45.977Z,54.57
2018-03-03T03:25:13.096Z,56.20
2018-03-03T03:27:40.170Z,54.87
2018-03-03T03:30:07.247Z,56.37
2018-03-03T03:32:34.344Z,55.90
2018-03-03T03:35:04.353Z,56.93
2018-03-03T03:37:31.410Z,57.70
2018-03-03T03:39:58.540Z,60.93
2018-03-03T03:42:26.458Z,63.17
2018-03-03T03:44:53.530Z,58.63
2018-03-03T03:47:20.663Z,57.13
2018-03-03T03:49:47.731Z,59.10
2018-03-03T03:52:14.783Z,57.97
2018-03-03T03:54:41.913Z,54.77
2018-03-03T03:57:08.995Z,60.00
2018-03-03T03:59:36.062Z,60.90
2018-03-03T04:02:03.181Z,60.27
2018-03-03T04:04:30.280Z,62.43
2018-03-03T04:06:57.443Z,59.20
2018-03-03T04:09:24.560Z,58.17
2018-03-03T04:11:51.631Z,59.87
2018-03-03T04:14:18.694Z,58.47
2018-03-03T04:16:45.812Z,58.87
2018-03-03T04:19:12.888Z,56.67
2018-03-03T04:21:39.962Z,55.23
2018-03-03T04:24:07.089Z,58.37
2018-03-03T04:26:34.162Z,58.03
2018-03-03T04:29:01.243Z,56.07
2018-03-03T04:34:07.372Z,82.70
2018-03-03T04:36:34.479Z,66.80
2018-03-03T04:39:01.548Z,61.93
2018-03-03T04:41:28.626Z,64.47
2018-03-03T04:43:55.755Z,60.00
2018-03-03T04:46:22.823Z,61.23
2018-03-03T04:48:49.890Z,58.47
2018-03-03T04:51:16.995Z,58.73
2018-03-03T04:53:44.066Z,59.00
2018-03-03T04:56:11.131Z,58.87
2018-03-03T04:58:38.252Z,60.43
2018-03-03T05:01:05.323Z,58.17
2018-03-03T05:03:32.378Z,56.97
2018-03-03T05:05:59.968Z,56.97
2018-03-03T05:08:27.023Z,57.47
2018-03-03T05:10:54.083Z,59.63
2018-03-03T05:13:21.190Z,57.53
2018-03-03T05:15:48.336Z,57.00
2018-03-03T05:18:15.403Z,57.23
2018-03-03T05:20:42.545Z,57.23
2018-03-03T05:23:09.662Z,59.77
2018-03-03T05:25:36.708Z,57.73
2018-03-03T05:28:03.833Z,58.60
2018-03-03T05:33:09.153Z,83.18
2018-03-03T05:35:36.219Z,64.67
2018-03-03T05:38:03.852Z,63.57
2018-03-03T05:40:30.968Z,60.27
2018-03-03T05:42:58.034Z,61.33
2018-03-03T05:45:25.108Z,62.67
2018-03-03T05:47:55.715Z,61.10
2018-03-03T05:50:22.790Z,60.97
2018-03-03T05:52:49.852Z,60.27
2018-03-03T05:55:16.984Z,61.73
2018-03-03T05:57:44.069Z,58.50
2018-03-03T06:00:11.142Z,62.27
2018-03-03T06:02:38.342Z,59.60
2018-03-03T06:05:05.417Z,60.37
2018-03-03T06:07:32.492Z,62.20
2018-03-03T06:09:59.615Z,62.43
2018-03-03T06:12:26.706Z,60.57
2018-03-03T06:14:57.109Z,60.67
2018-03-03T06:17:24.315Z,61.33
2018-03-03T06:19:51.389Z,62.93
2018-03-03T06:22:18.535Z,63.30
2018-03-03T06:24:45.655Z,63.70
2018-03-03T06:27:12.722Z,61.50
2018-03-03T06:29:39.804Z,63.10
2018-03-03T06:34:44.922Z,92.32
2018-03-03T06:37:12.054Z,69.87
2018-03-03T06:39:39.120Z,63.53
2018-03-03T06:42:06.189Z,64.30
2018-03-03T06:44:33.755Z,66.03
2018-03-03T06:47:00.819Z,57.73
2018-03-03T06:49:28.734Z,59.90
2018-03-03T06:51:55.835Z,60.57
2018-03-03T06:54:22.904Z,60.67
2018-03-03T06:56:49.988Z,63.57
2018-03-03T06:59:17.180Z,55.93
2018-03-03T07:01:44.257Z,63.67
2018-03-03T07:04:11.423Z,65.27
2018-03-03T07:06:38.440Z,64.00
2018-03-03T07:09:05.510Z,62.20
2018-03-03T07:11:32.594Z,59.97
2018-03-03T07:13:59.716Z,70.00
2018-03-03T07:16:26.873Z,64.40
2018-03-03T07:18:54.016Z,70.63
2018-03-03T07:21:21.243Z,68.80
2018-03-03T07:23:48.323Z,67.57
2018-03-03T07:26:15.474Z,66.10
2018-03-03T07:28:43.446Z,70.50
2018-03-03T07:31:10.551Z,68.27
2018-03-03T07:33:37.876Z,71.30
2018-03-03T07:36:05.022Z,67.00
2018-03-03T07:38:32.565Z,70.97
2018-03-03T07:41:00.556Z,73.03
2018-03-03T07:43:27.683Z,67.90
2018-03-03T07:45:54.759Z,69.20
2018-03-03T07:48:21.830Z,66.97
2018-03-03T07:50:48.951Z,70.20
2018-03-03T07:53:16.031Z,67.87
2018-03-03T07:58:31.228Z,92.37
2018-03-03T08:00:58.291Z,72.60
2018-03-03T08:03:26.846Z,71.80
2018-03-03T08:05:54.435Z,69.17
2018-03-03T08:08:21.520Z,64.87
2018-03-03T08:10:48.613Z,61.30
2018-03-03T08:13:15.740Z,64.00
2018-03-03T08:15:42.837Z,38.47
2018-03-03T08:18:09.890Z,65.93
2018-03-03T08:20:37.012Z,68.80
2018-03-03T08:23:04.102Z,61.53
2018-03-03T08:25:31.522Z,65.00
2018-03-03T08:27:58.641Z,54.20
2018-03-03T08:30:25.708Z,63.93
2018-03-03T08:32:53.735Z,68.13
2018-03-03T08:35:24.100Z,62.33
2018-03-03T08:40:28.668Z,82.62
2018-03-03T08:45:30.182Z,52.57
2018-03-03T08:53:14.713Z,77.72
2018-03-03T08:55:42.279Z,61.87
2018-03-03T09:00:41.105Z,62.43
2018-03-03T09:03:14.452Z,64.47
2018-03-03T09:05:44.096Z,59.60
2018-03-03T09:08:12.529Z,42.70
2018-03-03T09:19:28.605Z,62.97
2018-03-03T09:21:55.763Z,57.63
2018-03-03T09:26:54.039Z,56.93
2018-03-03T09:29:21.191Z,58.87
2018-03-03T09:31:48.850Z,54.27
2018-03-03T09:36:50.909Z,58.47
2018-03-03T09:42:04.167Z,59.67
2018-03-03T09:49:56.394Z,63.83
2018-03-03T09:57:38.616Z,56.60
2018-03-03T10:00:06.260Z,57.60
2018-03-03T10:02:33.215Z,62.17
2018-03-03T10:05:00.336Z,57.80
2018-03-03T10:07:27.392Z,63.93
2018-03-03T10:09:54.470Z,61.53
2018-03-03T10:12:21.672Z,62.20
2018-03-03T10:17:19.902Z,61.60
2018-03-03T10:19:47.138Z,59.23
2018-03-03T10:22:14.743Z,58.80
2018-03-03T10:24:41.817Z,55.07
2018-03-03T10:27:08.936Z,60.97
2018-03-03T10:29:36.001Z,55.80
2018-03-03T10:32:03.087Z,56.17
2018-03-03T10:34:30.208Z,55.63
2018-03-03T10:36:57.301Z,48.97
2018-03-03T10:39:24.361Z,47.53
2018-03-03T10:41:51.909Z,44.67
2018-03-03T10:46:57.529Z,53.38
2018-03-03T10:49:24.584Z,49.07
2018-03-03T10:51:51.660Z,44.47
2018-03-03T10:54:19.446Z,41.97
2018-03-03T10:56:46.509Z,43.00
2018-03-03T10:59:13.574Z,38.90
2018-03-03T11:01:40.691Z,43.07
2018-03-03T11:04:07.767Z,39.87
2018-03-03T11:06:34.834Z,41.20
2018-03-03T11:09:01.976Z,39.03
2018-03-03T11:11:29.059Z,38.87
2018-03-03T11:13:56.168Z,42.40
2018-03-03T11:16:23.281Z,39.30
2018-03-03T11:18:50.356Z,37.47
2018-03-03T11:21:17.416Z,37.77
2018-03-03T11:23:44.531Z,37.43
2018-03-03T11:26:11.597Z,39.27
2018-03-03T11:28:38.657Z,37.47
2018-03-03T11:31:05.770Z,40.03
2018-03-03T11:33:33.809Z,37.03
2018-03-03T11:36:00.872Z,38.57
2018-03-03T11:38:28.418Z,35.37
2018-03-03T11:40:55.511Z,31.57
2018-03-03T11:43:22.603Z,38.53
2018-03-03T11:45:49.723Z,37.27
2018-03-03T11:48:17.239Z,34.90
2018-03-03T11:50:44.324Z,31.93
2018-03-03T11:53:11.432Z,33.47
2018-03-03T11:55:38.905Z,35.00
2018-03-03T11:58:05.973Z,33.63
2018-03-03T12:00:33.112Z,34.70
2018-03-03T12:03:00.210Z,34.20
2018-03-03T12:05:28.778Z,34.17
2018-03-03T12:10:34.253Z,40.08
2018-03-03T12:13:01.365Z,31.73
2018-03-03T12:15:29.082Z,30.00
2018-03-03T12:17:56.124Z,28.70
2018-03-03T12:20:23.251Z,32.53
2018-03-03T12:22:50.328Z,28.77
2018-03-03T12:25:17.399Z,31.07
2018-03-03T12:27:44.554Z,30.30
2018-03-03T12:30:11.627Z,32.07
2018-03-03T12:35:17.363Z,38.80
2018-03-03T12:37:44.964Z,36.97
2018-03-03T12:40:12.044Z,28.47
2018-03-03T12:42:39.166Z,34.77
2018-03-03T12:45:06.829Z,35.23
2018-03-03T12:47:33.941Z,34.00
2018-03-03T12:50:01.967Z,32.67
2018-03-03T12:55:13.493Z,38.42
2018-03-03T12:57:40.555Z,28.30
2018-03-03T13:00:07.628Z,23.67
2018-03-03T13:02:34.736Z,18.33
2018-03-03T13:05:01.812Z,21.30
2018-03-03T13:07:28.892Z,22.70
2018-03-03T13:09:56.007Z,24.17
2018-03-03T13:12:23.069Z,25.47
2018-03-03T13:14:50.128Z,25.87
2018-03-03T13:17:17.252Z,26.40
2018-03-03T13:19:44.304Z,24.90
2018-03-03T13:22:11.382Z,25.57
2018-03-03T13:24:38.465Z,25.87
2018-03-03T13:27:05.517Z,24.63
2018-03-03T13:29:33.040Z,25.63
2018-03-03T13:34:37.264Z,24.27
2018-03-03T13:37:05.758Z,22.60
2018-03-03T13:42:17.396Z,23.15
2018-03-03T13:44:44.444Z,19.43
2018-03-03T13:47:11.581Z,18.23
2018-03-03T13:49:38.607Z,18.03
2018-03-03T13:52:05.673Z,18.50
2018-03-03T13:54:32.765Z,14.20
2018-03-03T13:57:00.024Z,19.83
2018-03-03T13:59:27.010Z,18.33
2018-03-03T14:01:54.107Z,16.27
2018-03-03T14:04:21.240Z,18.23
2018-03-03T14:06:48.432Z,19.37
2018-03-03T14:09:15.394Z,17.80
2018-03-03T14:11:42.520Z,18.83
2018-03-03T14:16:47.764Z,22.40
2018-03-03T14:19:14.890Z,22.23
2018-03-03T14:21:41.958Z,20.67
2018-03-03T14:24:09.464Z,20.37
2018-03-03T14:26:36.530Z,24.77
2018-03-03T14:29:03.591Z,22.83
2018-03-03T14:31:34.321Z,24.67
2018-03-03T14:34:01.403Z,24.63
2018-03-03T14:36:28.489Z,33.40
2018-03-03T14:38:55.695Z,33.77
2018-03-03T14:41:22.789Z,31.87
2018-03-03T14:43:49.960Z,30.53
2018-03-03T14:48:55.209Z,36.97
2018-03-03T14:51:22.785Z,33.23
2018-03-03T14:53:49.841Z,27.90
2018-03-03T14:56:16.905Z,31.23
2018-03-03T14:58:44.052Z,31.00
2018-03-03T15:01:11.130Z,26.27
2018-03-03T15:03:38.191Z,26.07
2018-03-03T15:06:05.345Z,28.50
2018-03-03T15:08:32.456Z,29.53
2018-03-03T15:10:59.541Z,25.13
2018-03-03T15:13:26.719Z,26.87
2018-03-03T15:15:53.821Z,23.80
2018-03-03T15:18:21.756Z,27.33
2018-03-03T15:20:49.442Z,25.80
2018-03-03T15:23:16.511Z,27.40
2018-03-03T15:25:43.609Z,23.30
2018-03-03T15:28:10.786Z,21.57
2018-03-03T15:30:38.155Z,19.37
2018-03-03T15:33:05.734Z,23.20
2018-03-03T15:35:32.924Z,21.00
2018-03-03T15:37:59.956Z,23.03
2018-03-03T15:40:27.014Z,22.47
2018-03-03T15:42:54.128Z,24.23
2018-03-03T15:45:21.224Z,22.60
2018-03-03T15:47:49.223Z,26.20
2018-03-03T15:50:16.324Z,24.67
2018-03-03T15:52:43.392Z,24.20
2018-03-03T15:55:10.453Z,26.87
2018-03-03T15:57:37.719Z,24.33
2018-03-03T16:00:06.190Z,21.33
2018-03-03T16:02:34.930Z,27.77
2018-03-03T16:05:02.071Z,26.20
2018-03-03T16:07:29.131Z,27.30
2018-03-03T16:12:35.641Z,33.40
2018-03-03T16:15:03.624Z,28.50
2018-03-03T16:17:31.176Z,27.30
2018-03-03T16:22:37.561Z,33.58
2018-03-03T16:25:04.149Z,30.17
2018-03-03T16:27:31.455Z,26.73
2018-03-03T16:29:58.505Z,27.57
2018-03-03T16:32:25.615Z,28.00
2018-03-03T16:34:52.763Z,25.43
2018-03-03T16:37:19.907Z,26.87
2018-03-03T16:39:47.015Z,26.63
2018-03-03T16:42:14.999Z,25.20
2018-03-03T16:44:42.090Z,27.17
2018-03-03T16:47:09.187Z,27.80
2018-03-03T16:49:36.243Z,26.40
2018-03-03T16:52:03.296Z,28.23
2018-03-03T16:54:30.407Z,23.47
2018-03-03T16:56:57.459Z,25.90
2018-03-03T16:59:24.508Z,25.60
2018-03-03T17:01:51.598Z,26.43
2018-03-03T17:04:18.649Z,24.60
2018-03-03T17:06:45.691Z,26.27
2018-03-03T17:11:53.915Z,33.25
2018-03-03T17:14:21.034Z,28.07
2018-03-03T17:16:48.092Z,26.97
2018-03-03T17:19:15.886Z,25.00
2018-03-03T17:21:43.527Z,27.60
2018-03-03T17:24:11.778Z,26.90
2018-03-03T17:26:39.722Z,26.90
2018-03-03T17:29:06.827Z,25.83
2018-03-03T17:31:35.343Z,24.90
2018-03-03T17:34:02.437Z,25.73
2018-03-03T17:36:29.519Z,24.73
2018-03-03T17:38:56.581Z,26.00
2018-03-03T17:41:23.657Z,25.83
2018-03-03T17:43:50.777Z,25.20
2018-03-03T17:46:17.886Z,24.57
2018-03-03T17:48:44.912Z,24.70
2018-03-03T17:51:12.043Z,25.57
2018-03-03T17:53:39.604Z,26.37
2018-03-03T17:56:06.669Z,24.03
2018-03-03T17:58:33.797Z,25.33
2018-03-03T18:01:00.876Z,28.23
2018-03-03T18:03:28.889Z,28.47
2018-03-03T18:05:56.038Z,27.73
2018-03-03T18:08:23.939Z,29.17
2018-03-03T18:10:51.832Z,27.03
2018-03-03T18:16:01.624Z,36.65
2018-03-03T18:18:31.152Z,29.20
2018-03-03T18:20:58.216Z,26.73
2018-03-03T18:23:25.282Z,27.27
2018-03-03T18:25:52.437Z,56.97
2018-03-03T18:28:19.532Z,38.87
2018-03-03T18:30:46.596Z,42.37
2018-03-03T18:33:15.097Z,29.87
2018-03-03T18:35:42.435Z,37.07
2018-03-03T18:38:09.525Z,37.37
2018-03-03T18:40:37.624Z,27.57
2018-03-03T18:43:05.653Z,28.93
2018-03-03T18:45:33.700Z,64.77
2018-03-03T18:48:01.454Z,35.97
2018-03-03T18:50:28.373Z,31.00
2018-03-03T18:52:55.432Z,37.30
2018-03-03T18:55:22.549Z,38.33
2018-03-03T18:57:49.598Z,28.30
2018-03-03T19:00:16.644Z,28.60
2018-03-03T19:02:43.772Z,29.60
2018-03-03T19:05:10.945Z,29.17
2018-03-03T19:07:38.060Z,28.80
2018-03-03T19:10:05.254Z,28.43
2018-03-03T19:12:32.578Z,27.43
2018-03-03T19:14:59.644Z,30.67
2018-03-03T19:17:26.744Z,30.73
2018-03-03T19:19:53.810Z,30.00
2018-03-03T19:22:20.960Z,29.80
2018-03-03T19:24:48.167Z,29.10
2018-03-03T19:27:15.211Z,31.17
2018-03-03T19:29:42.265Z,29.47
2018-03-03T19:32:09.396Z,31.63
2018-03-03T19:34:36.419Z,29.77
2018-03-03T19:39:48.047Z,35.50
2018-03-03T19:42:15.116Z,32.10
2018-03-03T19:44:42.640Z,29.60
2018-03-03T19:47:09.761Z,29.53
2018-03-03T19:49:36.838Z,29.07
2018-03-03T19:52:03.964Z,30.83
2018-03-03T19:54:31.041Z,27.43
2018-03-03T19:59:43.418Z,35.55
2018-03-03T20:02:08.625Z,31.73
2018-03-03T20:04:35.661Z,29.17
2018-03-03T20:07:02.845Z,30.10
2018-03-03T20:09:29.954Z,29.97
2018-03-03T20:11:57.216Z,30.67
2018-03-03T20:14:24.280Z,30.53
2018-03-03T20:16:51.328Z,31.87
2018-03-03T20:19:18.407Z,33.63
2018-03-03T20:21:45.506Z,34.03
2018-03-03T20:24:13.623Z,31.93
2018-03-03T20:26:40.632Z,31.37
2018-03-03T20:29:07.729Z,31.93
2018-03-03T20:31:35.635Z,31.93
2018-03-03T20:34:02.684Z,32.73
2018-03-03T20:36:29.776Z,34.63
2018-03-03T20:38:56.831Z,30.90
2018-03-03T20:41:23.893Z,33.27
2018-03-03T20:43:51.097Z,33.83
2018-03-03T20:46:18.067Z,34.33
2018-03-03T20:48:45.133Z,34.87
2018-03-03T20:51:13.483Z,35.17
2018-03-03T20:53:40.530Z,35.60
2018-03-03T20:56:07.578Z,37.40
2018-03-03T20:58:34.804Z,35.40
2018-03-03T21:01:01.868Z,36.70
2018-03-03T21:03:28.964Z,35.20
2018-03-03T21:05:56.055Z,37.93
2018-03-03T21:11:03.663Z,46.90
2018-03-03T21:13:31.367Z,37.77
2018-03-03T21:15:58.353Z,39.23
2018-03-03T21:18:27.080Z,35.83
2018-03-03T21:20:54.121Z,37.37
2018-03-03T21:23:21.204Z,37.83
2018-03-03T21:25:48.452Z,39.03
2018-03-03T21:28:15.335Z,39.93
2018-03-03T21:30:42.383Z,40.20
2018-03-03T21:33:09.481Z,39.63
2018-03-03T21:35:40.046Z,42.00
2018-03-03T21:38:07.104Z,40.63
2018-03-03T21:40:34.214Z,48.90
2018-03-03T21:43:01.273Z,63.37
2018-03-03T21:45:29.361Z,54.20
2018-03-03T21:47:56.860Z,45.13
2018-03-03T21:50:23.946Z,55.63
2018-03-03T21:55:20.284Z,49.97
2018-03-03T21:57:47.641Z,45.30
2018-03-03T22:00:14.941Z,47.23
2018-03-03T22:05:19.779Z,54.63
2018-03-03T22:07:46.873Z,45.13
2018-03-03T22:10:13.972Z,43.93
2018-03-03T22:12:41.041Z,41.67
2018-03-03T22:15:08.184Z,41.27
2018-03-03T22:17:35.276Z,42.07
2018-03-03T22:20:02.860Z,43.57
2018-03-03T22:22:29.962Z,42.07
2018-03-03T22:24:57.204Z,42.57
2018-03-03T22:27:24.349Z,43.30
2018-03-03T22:29:51.447Z,37.47
2018-03-03T22:32:18.519Z,43.03
2018-03-03T22:37:23.745Z,55.35
2018-03-03T22:39:51.546Z,47.13
2018-03-03T22:42:18.581Z,46.47
2018-03-03T22:44:47.453Z,46.00
2018-03-03T22:47:12.727Z,43.43
2018-03-03T22:49:39.772Z,41.70
2018-03-03T22:52:06.875Z,43.70
2018-03-03T22:54:34.864Z,44.33
2018-03-03T22:57:02.859Z,45.30
2018-03-03T22:59:30.016Z,43.60
2018-03-03T23:01:57.067Z,46.23
2018-03-03T23:04:24.099Z,47.67
2018-03-03T23:06:52.072Z,48.70
2018-03-03T23:09:19.123Z,48.50
2018-03-03T23:11:47.283Z,46.60
2018-03-03T23:14:15.328Z,49.70
2018-03-03T23:16:42.386Z,47.50
2018-03-03T23:19:09.423Z,46.97
2018-03-03T23:21:37.546Z,49.53
2018-03-03T23:24:04.618Z,46.03
2018-03-03T23:26:31.647Z,51.63
2018-03-03T23:28:58.749Z,46.17
2018-03-03T23:31:25.804Z,45.60
2018-03-03T23:33:53.124Z,47.10
2018-03-03T23:36:20.218Z,47.83
2018-03-03T23:38:47.283Z,46.27
2018-03-03T23:41:15.153Z,44.27
2018-03-03T23:43:43.203Z,45.60
2018-03-03T23:46:11.143Z,45.13
2018-03-03T23:48:38.286Z,44.80
2018-03-03T23:51:05.468Z,44.37
2018-03-03T23:53:32.531Z,45.17
2018-03-03T23:55:59.578Z,48.87
